METAR Data
IDs: Format: Raw Decoded Include TAF

Data at: 1708 UTC 18 Feb 2019

METAR for:KAUN (Auburn Muni, CA, US)
Text:KAUN 181655Z AUTO 00000KT 10SM CLR 03/M03 A3017 RMK A01
Temperature: 3.0°C ( 37°F)
Dewpoint: -3.0°C ( 27°F) [RH = 65%]
Pressure (altimeter):30.17 inches Hg (1021.8 mb)
Winds:calm
Visibility:10 or more sm (16+ km)
Ceiling:at least 12,000 feet AGL
Clouds:sky clear below 12,000 feet AGL
QC Flag:automated observation with no human augmentation